createdAt,value
2018-03-20T00:00:37.803Z,12.90
2018-03-20T00:03:05.214Z,15.98
2018-03-20T00:05:32.632Z,15.37
2018-03-20T00:08:00.057Z,13.90
2018-03-20T00:10:27.464Z,16.12
2018-03-20T00:12:54.891Z,14.50
2018-03-20T00:15:22.305Z,14.17
2018-03-20T00:17:49.731Z,13.93
2018-03-20T00:20:17.142Z,13.00
2018-03-20T00:22:44.563Z,15.23
2018-03-20T00:25:11.979Z,15.53
2018-03-20T00:27:39.395Z,13.70
2018-03-20T00:30:06.811Z,17.90
2018-03-20T00:32:34.226Z,14.53
2018-03-20T00:35:01.630Z,14.20
2018-03-20T00:37:29.055Z,14.85
2018-03-20T00:39:56.461Z,14.67
2018-03-20T00:42:23.887Z,15.27
2018-03-20T00:44:51.311Z,16.33
2018-03-20T00:47:19.568Z,15.57
2018-03-20T00:49:46.974Z,16.30
2018-03-20T00:52:14.405Z,17.83
2018-03-20T00:54:41.805Z,14.60
2018-03-20T00:57:09.236Z,15.03
2018-03-20T00:59:36.662Z,18.13
2018-03-20T01:02:04.074Z,14.67
2018-03-20T01:04:31.486Z,15.23
2018-03-20T01:06:58.914Z,14.63
2018-03-20T01:09:26.333Z,13.50
2018-03-20T01:11:53.751Z,13.20
2018-03-20T01:14:21.162Z,12.40
2018-03-20T01:16:48.589Z,16.00
2018-03-20T01:19:15.997Z,16.47
2018-03-20T01:21:43.416Z,13.60
2018-03-20T01:24:10.847Z,13.23
2018-03-20T01:26:38.264Z,12.63
2018-03-20T01:29:05.680Z,15.05
2018-03-20T01:31:33.081Z,13.93
2018-03-20T01:34:00.506Z,14.23
2018-03-20T01:36:27.922Z,13.67
2018-03-20T01:38:55.343Z,14.55
2018-03-20T01:41:22.770Z,13.90
2018-03-20T01:43:51.197Z,13.55
2018-03-20T01:46:18.610Z,14.80
2018-03-20T01:48:46.039Z,17.70
2018-03-20T01:51:13.454Z,15.20
2018-03-20T01:53:40.866Z,15.20
2018-03-20T01:56:08.275Z,14.67
2018-03-20T01:58:35.693Z,16.80
2018-03-20T02:01:03.109Z,16.60
2018-03-20T02:03:30.531Z,14.30
2018-03-20T02:05:57.962Z,15.30
2018-03-20T02:08:25.379Z,13.83
2018-03-20T02:10:52.783Z,15.40
2018-03-20T02:13:20.223Z,14.40
2018-03-20T02:15:47.650Z,16.10
2018-03-20T02:18:15.070Z,16.60
2018-03-20T02:20:42.480Z,15.27
2018-03-20T02:23:09.890Z,12.65
2018-03-20T02:25:37.306Z,16.42
2018-03-20T02:28:04.736Z,16.13
2018-03-20T02:30:32.147Z,17.33
2018-03-20T02:32:59.560Z,15.50
2018-03-20T02:35:26.978Z,17.85
2018-03-20T02:37:54.398Z,17.97
2018-03-20T02:40:21.811Z,16.87
2018-03-20T02:42:49.226Z,14.03
2018-03-20T02:45:16.635Z,14.57
2018-03-20T02:47:44.050Z,18.48
2018-03-20T02:50:11.473Z,14.67
2018-03-20T02:52:38.881Z,15.03
2018-03-20T02:55:06.316Z,17.63
2018-03-20T02:57:33.739Z,16.60
2018-03-20T03:00:01.148Z,18.30
2018-03-20T03:02:28.565Z,16.90
2018-03-20T03:04:55.988Z,16.13
2018-03-20T03:07:23.869Z,16.75
2018-03-20T03:09:51.293Z,15.20
2018-03-20T03:12:18.699Z,15.50
2018-03-20T03:14:46.115Z,15.70
2018-03-20T03:17:13.523Z,16.87
2018-03-20T03:19:40.941Z,15.38
2018-03-20T03:22:08.355Z,17.67
2018-03-20T03:24:35.772Z,15.17
2018-03-20T03:27:03.170Z,14.53
2018-03-20T03:29:30.593Z,14.50
2018-03-20T03:31:58.004Z,17.50
2018-03-20T03:34:25.443Z,15.82
2018-03-20T03:36:53.532Z,14.87
2018-03-20T03:39:21.009Z,14.87
2018-03-20T03:41:48.418Z,17.40
2018-03-20T03:44:15.854Z,17.97
2018-03-20T03:46:43.264Z,13.80
2018-03-20T03:49:10.677Z,14.73
2018-03-20T03:51:38.101Z,14.20
2018-03-20T03:56:40.054Z,15.02
2018-03-20T03:59:07.474Z,16.53
2018-03-20T04:01:34.890Z,15.47
2018-03-20T04:04:02.327Z,16.20
2018-03-20T04:06:29.751Z,16.30
2018-03-20T04:08:57.161Z,16.77
2018-03-20T04:11:24.574Z,15.07
2018-03-20T04:13:52.137Z,15.80
2018-03-20T04:16:19.560Z,17.07
2018-03-20T04:18:46.979Z,18.27
2018-03-20T04:21:14.402Z,19.23
2018-03-20T04:23:41.847Z,19.10
2018-03-20T04:26:09.267Z,18.77
2018-03-20T04:28:36.689Z,19.10
2018-03-20T04:31:04.117Z,17.57
2018-03-20T04:33:31.534Z,17.77
2018-03-20T04:35:58.945Z,19.37
2018-03-20T04:38:26.733Z,20.20
2018-03-20T04:40:54.158Z,19.47
2018-03-20T04:43:21.583Z,19.43
2018-03-20T04:45:48.993Z,19.70
2018-03-20T04:48:16.410Z,20.50
2018-03-20T04:50:43.835Z,20.00
2018-03-20T04:53:11.247Z,19.87
2018-03-20T04:55:38.669Z,20.87
2018-03-20T04:58:06.077Z,18.93
2018-03-20T05:00:33.499Z,18.67
2018-03-20T05:03:00.905Z,19.00
2018-03-20T05:05:28.322Z,16.73
2018-03-20T05:07:55.739Z,18.15
2018-03-20T05:10:23.159Z,19.50
2018-03-20T05:12:50.582Z,17.87
2018-03-20T05:15:17.991Z,18.73
2018-03-20T05:17:46.906Z,17.53
2018-03-20T05:23:29.582Z,15.43
2018-03-20T05:25:57.229Z,18.10
2018-03-20T05:28:24.648Z,16.27
2018-03-20T05:30:53.561Z,19.10
2018-03-20T05:33:21.045Z,16.80
2018-03-20T05:35:48.477Z,17.57
2018-03-20T05:38:15.888Z,17.47
2018-03-20T05:40:43.305Z,17.23
2018-03-20T05:43:10.720Z,16.23
2018-03-20T05:45:38.160Z,15.20
2018-03-20T05:48:11.174Z,17.00
2018-03-20T05:53:44.078Z,18.02
2018-03-20T05:56:11.502Z,19.50
2018-03-20T05:58:38.975Z,19.17
2018-03-20T06:01:06.366Z,17.80
2018-03-20T06:03:33.778Z,20.65
2018-03-20T06:06:01.212Z,16.27
2018-03-20T06:08:28.626Z,18.47
2018-03-20T06:10:56.049Z,17.60
2018-03-20T06:13:23.470Z,16.63
2018-03-20T06:15:50.905Z,16.27
2018-03-20T06:18:18.330Z,18.13
2018-03-20T06:20:45.756Z,19.00
2018-03-20T06:23:13.184Z,19.20
2018-03-20T06:25:40.610Z,17.23
2018-03-20T06:28:08.040Z,18.30
2018-03-20T06:30:35.458Z,19.70
2018-03-20T06:33:02.884Z,17.15
2018-03-20T06:35:31.074Z,16.27
2018-03-20T06:37:58.517Z,21.07
2018-03-20T06:40:25.916Z,19.10
2018-03-20T06:42:53.334Z,18.60
2018-03-20T06:45:20.761Z,18.80
2018-03-20T06:47:48.199Z,20.87
2018-03-20T06:50:15.620Z,20.33
2018-03-20T06:52:43.039Z,21.67
2018-03-20T06:55:10.459Z,26.53
2018-03-20T06:57:37.874Z,22.07
2018-03-20T07:00:05.290Z,21.30
2018-03-20T07:02:32.727Z,23.80
2018-03-20T07:05:00.139Z,23.17
2018-03-20T07:07:27.566Z,20.10
2018-03-20T07:09:54.986Z,18.87
2018-03-20T07:12:22.410Z,21.33
2018-03-20T07:14:49.823Z,18.77
2018-03-20T07:17:17.269Z,16.90
2018-03-20T07:19:44.678Z,16.95
2018-03-20T07:22:12.106Z,19.50
2018-03-20T07:24:39.535Z,15.43
2018-03-20T07:27:06.954Z,15.13
2018-03-20T07:29:34.365Z,17.00
2018-03-20T07:32:01.820Z,15.40
2018-03-20T07:34:29.265Z,17.48
2018-03-20T07:36:56.642Z,15.70
2018-03-20T07:39:24.058Z,18.03
2018-03-20T07:41:51.494Z,18.15
2018-03-20T07:44:18.934Z,17.60
2018-03-20T07:46:46.348Z,16.10
2018-03-20T07:49:13.783Z,17.85
2018-03-20T07:51:41.195Z,17.00
2018-03-20T07:54:08.625Z,17.77
2018-03-20T07:56:36.034Z,17.35
2018-03-20T07:59:04.295Z,15.57
2018-03-20T08:01:31.714Z,15.77
2018-03-20T08:03:59.141Z,15.03
2018-03-20T08:06:26.549Z,15.07
2018-03-20T08:08:53.971Z,14.87
2018-03-20T08:11:21.416Z,17.13
2018-03-20T08:13:48.881Z,15.33
2018-03-20T08:16:16.259Z,15.70
2018-03-20T08:18:43.688Z,18.00
2018-03-20T08:21:11.101Z,12.57
2018-03-20T08:23:38.528Z,15.20
2018-03-20T08:26:05.942Z,15.87
2018-03-20T08:28:33.366Z,14.45
2018-03-20T08:31:00.798Z,15.20
2018-03-20T08:33:28.226Z,15.27
2018-03-20T08:35:55.650Z,14.13
2018-03-20T08:38:23.070Z,14.50
2018-03-20T08:40:50.486Z,13.87
2018-03-20T08:43:17.911Z,15.37
2018-03-20T08:45:45.340Z,14.60
2018-03-20T08:48:12.760Z,15.20
2018-03-20T08:50:40.180Z,13.32
2018-03-20T08:53:07.598Z,14.40
2018-03-20T08:55:35.020Z,14.67
2018-03-20T08:58:02.434Z,15.33
2018-03-20T09:00:29.859Z,15.50
2018-03-20T09:02:57.293Z,15.10
2018-03-20T09:05:24.707Z,15.90
2018-03-20T09:07:52.122Z,16.00
2018-03-20T09:10:19.537Z,14.50
2018-03-20T09:12:46.962Z,12.67
2018-03-20T09:15:14.381Z,14.68
2018-03-20T09:17:41.791Z,14.27
2018-03-20T09:20:09.207Z,14.63
2018-03-20T09:22:36.618Z,15.27
2018-03-20T09:25:04.466Z,13.33
2018-03-20T09:27:31.878Z,14.27
2018-03-20T09:29:59.297Z,15.43
2018-03-20T09:32:26.709Z,14.97
2018-03-20T09:34:54.141Z,13.43
2018-03-20T09:37:21.556Z,14.73
2018-03-20T09:39:48.975Z,12.60
2018-03-20T09:42:16.382Z,12.88
2018-03-20T09:44:43.797Z,13.33
2018-03-20T09:47:11.202Z,12.87
2018-03-20T09:49:38.985Z,13.62
2018-03-20T09:52:06.394Z,11.67
2018-03-20T09:54:33.811Z,12.40
2018-03-20T09:57:01.219Z,12.00
2018-03-20T09:59:28.637Z,11.90
2018-03-20T10:01:56.046Z,12.90
2018-03-20T10:04:23.473Z,12.50
2018-03-20T10:06:50.874Z,12.00
2018-03-20T10:09:18.290Z,10.90
2018-03-20T10:11:45.702Z,10.93
2018-03-20T10:14:13.130Z,11.57
2018-03-20T10:16:40.534Z,11.07
2018-03-20T10:19:07.950Z,12.20
2018-03-20T10:21:35.362Z,13.40
2018-03-20T10:24:02.783Z,9.00
2018-03-20T10:26:30.187Z,9.70
2018-03-20T10:28:57.614Z,11.23
2018-03-20T10:31:25.026Z,11.33
2018-03-20T10:33:52.444Z,9.53
2018-03-20T10:36:19.928Z,9.27
2018-03-20T10:38:47.324Z,8.90
2018-03-20T10:41:14.747Z,8.80
2018-03-20T10:43:42.168Z,11.35
2018-03-20T10:46:09.573Z,8.80
2018-03-20T10:48:36.987Z,7.60
2018-03-20T10:51:04.408Z,7.77
2018-03-20T10:53:31.808Z,8.47
2018-03-20T10:55:59.225Z,6.30
2018-03-20T10:58:26.627Z,4.87
2018-03-20T11:00:59.727Z,5.22
2018-03-20T11:03:27.132Z,6.22
2018-03-20T11:05:54.546Z,6.07
2018-03-20T11:08:21.958Z,7.10
2018-03-20T11:10:49.370Z,7.63
2018-03-20T11:13:16.778Z,6.30
2018-03-20T11:15:44.190Z,8.37
2018-03-20T11:18:11.599Z,7.00
2018-03-20T11:20:39.025Z,6.43
2018-03-20T11:23:06.427Z,6.97
2018-03-20T11:25:33.843Z,6.97
2018-03-20T11:28:01.251Z,6.90
2018-03-20T11:30:28.700Z,6.37
2018-03-20T11:32:56.100Z,5.60
2018-03-20T11:35:23.518Z,6.20
2018-03-20T11:37:50.939Z,5.97
2018-03-20T11:40:18.351Z,8.37
2018-03-20T11:42:45.770Z,6.80
2018-03-20T11:45:14.237Z,6.96
2018-03-20T11:47:41.639Z,6.93
2018-03-20T11:50:09.051Z,7.10
2018-03-20T11:52:36.455Z,6.03
2018-03-20T11:55:03.861Z,7.60
2018-03-20T11:57:31.265Z,7.83
2018-03-20T11:59:58.704Z,7.20
2018-03-20T12:02:26.112Z,8.77
2018-03-20T12:04:53.530Z,6.67
2018-03-20T12:07:20.939Z,6.60
2018-03-20T12:09:49.260Z,8.10
2018-03-20T12:12:16.678Z,7.77
2018-03-20T12:14:44.082Z,8.67
2018-03-20T12:17:11.497Z,8.88
2018-03-20T12:19:38.901Z,9.07
2018-03-20T12:22:06.323Z,10.93
2018-03-20T12:24:33.731Z,10.20
2018-03-20T12:27:01.150Z,10.57
2018-03-20T12:29:28.563Z,10.47
2018-03-20T12:31:56.030Z,10.90
2018-03-20T12:34:23.393Z,9.15
2018-03-20T12:36:50.802Z,11.37
2018-03-20T12:39:18.205Z,11.27
2018-03-20T12:41:46.634Z,11.45
2018-03-20T12:44:14.042Z,11.43
2018-03-20T12:46:41.534Z,7.50
2018-03-20T12:49:08.869Z,8.10
2018-03-20T12:51:36.282Z,8.63
2018-03-20T12:54:03.691Z,7.70
2018-03-20T12:56:31.127Z,8.50
2018-03-20T12:58:58.529Z,6.47
2018-03-20T13:01:26.002Z,8.48
2018-03-20T13:03:53.359Z,8.30
2018-03-20T13:06:20.798Z,9.23
2018-03-20T13:08:48.218Z,7.93
2018-03-20T13:11:15.627Z,8.97
2018-03-20T13:13:43.039Z,10.13
2018-03-20T13:16:10.738Z,7.70
2018-03-20T13:18:38.158Z,13.33
2018-03-20T13:21:05.585Z,10.70
2018-03-20T13:23:32.991Z,12.30
2018-03-20T13:26:00.412Z,10.27
2018-03-20T13:28:27.823Z,9.93
2018-03-20T13:30:55.244Z,8.00
2018-03-20T13:33:22.660Z,9.32
2018-03-20T13:35:50.071Z,8.43
2018-03-20T13:38:18.086Z,10.55
2018-03-20T13:40:45.492Z,9.60
2018-03-20T13:43:12.914Z,8.90
2018-03-20T13:45:40.328Z,10.17
2018-03-20T13:48:07.737Z,11.70
2018-03-20T13:50:35.154Z,11.20
2018-03-20T13:53:02.587Z,19.93
2018-03-20T13:55:30.004Z,15.13
2018-03-20T13:57:57.426Z,12.43
2018-03-20T14:00:24.851Z,18.80
2018-03-20T14:02:52.273Z,13.07
2018-03-20T14:05:19.683Z,15.40
2018-03-20T14:07:47.100Z,18.77
2018-03-20T14:10:14.514Z,15.13
2018-03-20T14:12:41.921Z,16.20
2018-03-20T14:15:09.326Z,14.03
2018-03-20T14:17:36.755Z,23.90
2018-03-20T14:20:04.157Z,20.60
2018-03-20T14:22:31.582Z,13.40
2018-03-20T14:24:59.000Z,20.35
2018-03-20T14:27:26.441Z,17.27
2018-03-20T14:29:53.842Z,15.10
2018-03-20T14:32:21.263Z,15.30
2018-03-20T14:34:49.442Z,14.98
2018-03-20T14:37:16.863Z,14.40
2018-03-20T14:39:44.279Z,11.90
2018-03-20T14:42:11.703Z,14.53
2018-03-20T14:44:39.111Z,13.80
2018-03-20T14:47:06.523Z,14.80
2018-03-20T14:49:33.930Z,14.33
2018-03-20T14:52:01.414Z,12.77
2018-03-20T14:54:28.831Z,15.35
2018-03-20T14:56:56.250Z,23.07
2018-03-20T14:59:23.658Z,14.23
2018-03-20T15:01:51.142Z,14.98
2018-03-20T15:04:18.502Z,18.00
2018-03-20T15:06:45.919Z,13.93
2018-03-20T15:09:13.334Z,16.25
2018-03-20T15:11:40.740Z,14.40
2018-03-20T15:14:08.171Z,16.43
2018-03-20T15:16:35.578Z,17.57
2018-03-20T15:19:02.999Z,18.00
2018-03-20T15:21:30.403Z,17.80
2018-03-20T15:23:57.824Z,17.05
2018-03-20T15:26:25.230Z,14.10
2018-03-20T15:28:52.664Z,14.67
2018-03-20T15:31:21.042Z,16.27
2018-03-20T15:33:48.453Z,14.63
2018-03-20T15:36:15.862Z,12.77
2018-03-20T15:38:43.282Z,13.93
2018-03-20T15:41:10.708Z,14.43
2018-03-20T15:43:38.121Z,14.97
2018-03-20T15:46:05.528Z,14.57
2018-03-20T15:48:32.949Z,15.93
2018-03-20T15:51:00.365Z,15.50
2018-03-20T15:53:27.786Z,12.93
2018-03-20T15:55:55.219Z,13.87
2018-03-20T15:58:22.648Z,14.90
2018-03-20T16:00:50.051Z,12.33
2018-03-20T16:03:17.466Z,16.10
2018-03-20T16:05:44.893Z,15.55
2018-03-20T16:08:12.305Z,14.53
2018-03-20T16:10:39.773Z,13.57
2018-03-20T16:13:07.207Z,14.20
2018-03-20T16:15:34.621Z,14.90
2018-03-20T16:18:02.038Z,16.27
2018-03-20T16:20:29.454Z,15.80
2018-03-20T16:22:56.919Z,19.57
2018-03-20T16:25:24.291Z,14.20
2018-03-20T16:27:51.707Z,13.40
2018-03-20T16:30:19.118Z,16.70
2018-03-20T16:32:46.537Z,15.53
2018-03-20T16:35:13.947Z,16.87
2018-03-20T16:37:41.367Z,15.20
2018-03-20T16:40:08.791Z,17.63
2018-03-20T16:42:36.198Z,15.13
2018-03-20T16:45:03.614Z,16.47
2018-03-20T16:47:31.036Z,24.90
2018-03-20T16:49:58.451Z,19.80
2018-03-20T16:52:25.870Z,18.93
2018-03-20T16:54:53.586Z,19.67
2018-03-20T16:57:21.024Z,33.87
2018-03-20T16:59:48.492Z,19.20
2018-03-20T17:02:15.866Z,20.40
2018-03-20T17:04:43.278Z,22.83
2018-03-20T17:07:10.694Z,23.50
2018-03-20T17:09:39.254Z,21.00
2018-03-20T17:12:06.663Z,19.37
2018-03-20T17:14:34.183Z,18.98
2018-03-20T17:17:01.598Z,19.80
2018-03-20T17:19:29.037Z,18.07
2018-03-20T17:21:56.446Z,22.80
2018-03-20T17:24:24.618Z,21.30
2018-03-20T17:26:52.034Z,24.00
2018-03-20T17:29:19.454Z,22.47
2018-03-20T17:31:46.871Z,19.83
2018-03-20T17:34:14.296Z,22.30
2018-03-20T17:36:41.702Z,22.15
2018-03-20T17:39:09.120Z,21.20
2018-03-20T17:41:36.534Z,18.62
2018-03-20T17:44:03.965Z,20.70
2018-03-20T17:46:31.372Z,23.67
2018-03-20T17:48:58.788Z,22.93
2018-03-20T17:51:26.208Z,20.75
2018-03-20T17:53:53.624Z,22.53
2018-03-20T17:56:21.032Z,22.50
2018-03-20T17:58:48.544Z,23.75
2018-03-20T18:01:15.953Z,24.43
2018-03-20T18:03:43.365Z,26.97
2018-03-20T18:06:10.773Z,27.33
2018-03-20T18:08:38.201Z,29.50
2018-03-20T18:11:05.615Z,29.13
2018-03-20T18:13:33.042Z,29.05
2018-03-20T18:16:00.465Z,29.90
2018-03-20T18:18:27.873Z,27.60
2018-03-20T18:20:55.303Z,28.98
2018-03-20T18:23:22.710Z,28.50
2018-03-20T18:25:50.147Z,26.40
2018-03-20T18:28:17.564Z,24.70
2018-03-20T18:30:44.982Z,25.80
2018-03-20T18:33:12.392Z,26.70
2018-03-20T18:35:39.806Z,25.58
2018-03-20T18:38:07.210Z,26.77
2018-03-20T18:40:34.646Z,26.00
2018-03-20T18:43:02.077Z,26.77
2018-03-20T18:45:29.490Z,24.73
2018-03-20T18:47:57.470Z,24.80
2018-03-20T18:50:24.886Z,25.37
2018-03-20T18:52:52.302Z,23.77
2018-03-20T18:55:19.730Z,23.57
2018-03-20T18:57:47.141Z,30.60
2018-03-20T19:00:14.600Z,30.20
2018-03-20T19:02:41.987Z,35.00
2018-03-20T19:05:09.415Z,28.90
2018-03-20T19:07:36.826Z,35.60
2018-03-20T19:10:04.394Z,30.50
2018-03-20T19:12:31.857Z,28.00
2018-03-20T19:14:59.271Z,37.88
2018-03-20T19:17:26.681Z,36.57
2018-03-20T19:19:54.098Z,37.10
2018-03-20T19:22:21.518Z,37.25
2018-03-20T19:24:48.930Z,32.67
2018-03-20T19:27:16.345Z,29.80
2018-03-20T19:29:43.761Z,30.30
2018-03-20T19:32:11.176Z,31.27
2018-03-20T19:34:38.613Z,30.90
2018-03-20T19:37:06.039Z,26.98
2018-03-20T19:39:33.450Z,25.23
2018-03-20T19:42:00.982Z,27.40
2018-03-20T19:44:28.534Z,25.65
2018-03-20T19:46:56.392Z,27.33
2018-03-20T19:49:23.911Z,28.20
2018-03-20T19:51:51.347Z,27.83
2018-03-20T19:54:19.712Z,27.67
2018-03-20T19:56:47.139Z,22.10
2018-03-20T19:59:14.562Z,24.03
2018-03-20T20:01:41.973Z,24.45
2018-03-20T20:04:09.391Z,22.47
2018-03-20T20:06:36.812Z,26.03
2018-03-20T20:09:04.225Z,25.73
2018-03-20T20:11:31.637Z,23.70
2018-03-20T20:13:59.053Z,23.73
2018-03-20T20:16:26.468Z,23.07
2018-03-20T20:18:53.877Z,23.00
2018-03-20T20:21:21.315Z,25.10
2018-03-20T20:23:48.719Z,23.33
2018-03-20T20:26:16.146Z,23.23
2018-03-20T20:28:43.569Z,26.00
2018-03-20T20:31:10.986Z,23.40
2018-03-20T20:33:38.410Z,22.77
2018-03-20T20:36:05.831Z,22.80
2018-03-20T20:38:33.262Z,21.60
2018-03-20T20:41:01.571Z,19.92
2018-03-20T20:43:29.068Z,20.37
2018-03-20T20:45:56.492Z,21.80
2018-03-20T20:48:23.906Z,16.60
2018-03-20T20:50:51.332Z,20.27
2018-03-20T20:53:18.748Z,18.03
2018-03-20T20:55:46.154Z,17.80
2018-03-20T20:58:13.566Z,16.40
2018-03-20T21:00:40.988Z,16.07
2018-03-20T21:03:08.400Z,15.03
2018-03-20T21:05:35.846Z,15.77
2018-03-20T21:08:03.393Z,16.40
2018-03-20T21:10:30.989Z,15.97
2018-03-20T21:12:58.614Z,15.47
2018-03-20T21:15:26.085Z,13.70
2018-03-20T21:17:53.646Z,15.63
2018-03-20T21:20:21.340Z,14.50
2018-03-20T21:22:48.853Z,13.07
2018-03-20T21:25:16.425Z,13.83
2018-03-20T21:27:43.933Z,12.07
2018-03-20T21:30:11.523Z,12.65
2018-03-20T21:32:39.049Z,11.97
2018-03-20T21:35:06.534Z,12.33
2018-03-20T21:37:34.005Z,13.80
2018-03-20T21:40:01.544Z,12.03
2018-03-20T21:42:32.194Z,11.83
2018-03-20T21:45:01.542Z,10.97
2018-03-20T21:47:31.610Z,11.17
2018-03-20T21:49:59.243Z,10.83
2018-03-20T21:52:28.367Z,11.63
2018-03-20T21:54:57.183Z,12.40
2018-03-20T21:57:26.570Z,9.57
2018-03-20T22:02:43.615Z,11.32
2018-03-20T22:05:13.638Z,10.27
2018-03-20T22:07:43.382Z,11.03
2018-03-20T22:10:12.928Z,12.90
2018-03-20T22:12:42.311Z,10.37
2018-03-20T22:15:12.250Z,10.40
2018-03-20T22:17:41.796Z,9.65
2018-03-20T22:20:11.628Z,10.50
2018-03-20T22:22:40.591Z,9.57
2018-03-20T22:25:09.834Z,10.37
2018-03-20T22:27:39.613Z,10.30
2018-03-20T22:30:08.819Z,10.60
2018-03-20T22:32:38.734Z,9.60
2018-03-20T22:35:08.711Z,10.30
2018-03-20T22:37:38.231Z,10.30
2018-03-20T22:40:08.331Z,7.80
2018-03-20T22:42:38.891Z,10.30
2018-03-20T22:45:09.791Z,10.50
2018-03-20T22:47:39.133Z,9.07
2018-03-20T22:50:09.568Z,9.30
2018-03-20T22:52:39.430Z,8.77
2018-03-20T22:55:09.388Z,8.85
2018-03-20T22:57:41.138Z,8.75
2018-03-20T23:00:11.039Z,8.20
2018-03-20T23:02:41.039Z,7.87
2018-03-20T23:05:10.449Z,8.90
2018-03-20T23:07:40.087Z,7.30
2018-03-20T23:10:10.068Z,7.82
2018-03-20T23:12:40.268Z,8.30
2018-03-20T23:15:10.048Z,8.65
2018-03-20T23:17:40.138Z,8.23
2018-03-20T23:20:10.476Z,7.28
2018-03-20T23:22:40.381Z,7.03
2018-03-20T23:25:10.638Z,7.60
2018-03-20T23:27:39.811Z,6.93
2018-03-20T23:30:08.629Z,7.80
2018-03-20T23:32:38.577Z,7.53
2018-03-20T23:35:08.343Z,7.97
2018-03-20T23:37:38.125Z,7.45
2018-03-20T23:40:06.832Z,8.27
2018-03-20T23:42:36.936Z,7.87
2018-03-20T23:45:07.019Z,6.63
2018-03-20T23:47:36.284Z,7.00
2018-03-20T23:50:05.893Z,6.83
2018-03-20T23:52:35.652Z,7.18
2018-03-20T23:55:05.909Z,7.23
2018-03-20T23:57:35.963Z,7.10
